createdAt,value
2023-03-04T00:04:08.529Z,61.91
2023-03-04T00:05:08.605Z,60.06
2023-03-04T00:06:08.677Z,60.89
2023-03-04T00:07:08.762Z,60.22
2023-03-04T00:08:08.839Z,59.64
2023-03-04T00:09:08.936Z,62.85
2023-03-04T00:10:09.019Z,60.96
2023-03-04T00:11:09.077Z,59.58
2023-03-04T00:12:09.169Z,59.08
2023-03-04T00:13:09.251Z,59.42
2023-03-04T00:14:09.325Z,60.02
2023-03-04T00:15:09.757Z,60.80
2023-03-04T00:16:09.490Z,59.03
2023-03-04T00:17:09.563Z,60.40
2023-03-04T00:18:09.652Z,59.12
2023-03-04T00:19:09.737Z,60.38
2023-03-04T00:20:09.812Z,60.05
2023-03-04T00:21:09.884Z,58.54
2023-03-04T00:22:09.959Z,58.76
2023-03-04T00:23:10.026Z,58.41
2023-03-04T00:24:10.120Z,59.23
2023-03-04T00:25:10.202Z,57.82
2023-03-04T00:26:10.293Z,57.23
2023-03-04T00:27:10.366Z,59.61
2023-03-04T00:28:10.447Z,59.17
2023-03-04T00:29:10.547Z,58.97
2023-03-04T00:30:10.637Z,57.99
2023-03-04T00:31:10.738Z,59.33
2023-03-04T00:32:10.993Z,59.06
2023-03-04T00:33:10.888Z,58.70
2023-03-04T00:34:10.969Z,56.81
2023-03-04T00:35:11.040Z,57.53
2023-03-04T00:36:11.141Z,58.13
2023-03-04T00:37:11.294Z,58.61
2023-03-04T00:38:11.301Z,56.90
2023-03-04T00:39:11.367Z,58.49
2023-03-04T00:40:11.447Z,56.18
2023-03-04T00:41:11.518Z,58.09
2023-03-04T00:42:11.611Z,58.51
2023-03-04T00:43:11.689Z,55.84
2023-03-04T00:44:11.780Z,56.97
2023-03-04T00:46:11.978Z,55.56
2023-03-04T00:47:12.027Z,56.90
2023-03-04T00:48:13.073Z,57.74
2023-03-04T00:49:12.185Z,56.02
2023-03-04T00:50:12.283Z,57.89
2023-03-04T00:51:12.357Z,57.21
2023-03-04T00:52:12.445Z,56.66
2023-03-04T01:55:18.286Z,50.38
2023-03-04T01:56:17.724Z,50.28
2023-03-04T01:57:17.841Z,50.98
2023-03-04T01:58:17.908Z,50.90
2023-03-04T01:59:17.986Z,49.10
2023-03-04T02:00:18.794Z,51.16
2023-03-04T02:01:18.182Z,51.99
2023-03-04T02:02:18.257Z,50.16
2023-03-04T02:03:18.338Z,49.68
2023-03-04T02:04:18.442Z,49.90
2023-03-04T02:05:18.512Z,49.42
2023-03-04T02:06:18.610Z,49.32
2023-03-04T02:07:18.705Z,48.95
2023-03-04T02:08:18.788Z,49.21
2023-03-04T02:09:18.884Z,50.06
2023-03-04T02:10:18.981Z,50.03
2023-03-04T02:11:19.071Z,48.51
2023-03-04T02:12:19.156Z,49.45
2023-03-04T02:13:19.259Z,48.29
2023-03-04T02:14:19.345Z,51.30
2023-03-04T02:15:19.409Z,47.98
2023-03-04T02:16:19.523Z,47.59
2023-03-04T02:17:19.577Z,49.79
2023-03-04T02:18:19.650Z,49.04
2023-03-04T02:19:19.741Z,50.27
2023-03-04T02:20:19.823Z,50.22
2023-03-04T02:21:19.913Z,48.73
2023-03-04T02:22:19.996Z,49.78
2023-03-04T02:23:20.071Z,49.20
2023-03-04T02:24:20.222Z,49.59
2023-03-04T02:25:20.268Z,50.72
2023-03-04T02:26:20.340Z,48.18
2023-03-04T02:27:22.027Z,48.28
2023-03-04T02:28:20.518Z,48.54
2023-03-04T02:29:20.580Z,48.95
2023-03-04T02:30:20.656Z,48.02
2023-03-04T02:31:20.809Z,47.86
2023-03-04T02:32:20.900Z,46.77
2023-03-04T02:33:20.900Z,48.47
2023-03-04T02:34:20.969Z,47.13
2023-03-04T02:35:21.087Z,48.14
2023-03-04T02:36:21.152Z,49.29
2023-03-04T02:37:21.326Z,45.96
2023-03-04T02:38:21.334Z,46.87
2023-03-04T02:39:21.441Z,49.32
2023-03-04T02:40:22.323Z,48.20
2023-03-04T02:41:21.616Z,47.38
2023-03-04T02:42:21.704Z,47.57
2023-03-04T02:43:21.834Z,47.44
2023-03-04T02:44:21.876Z,46.84
2023-03-04T02:45:21.976Z,47.28
2023-03-04T02:46:22.092Z,47.07
2023-03-04T02:47:22.168Z,47.48
2023-03-04T02:48:22.265Z,46.29
2023-03-04T02:49:22.356Z,47.84
2023-03-04T02:50:22.435Z,49.69
2023-03-04T02:51:22.527Z,47.95
2023-03-04T02:52:22.619Z,45.67
2023-03-04T02:53:22.736Z,46.49
2023-03-04T02:54:22.810Z,47.23
2023-03-04T03:05:23.766Z,45.55
2023-03-04T03:06:23.852Z,45.71
2023-03-04T03:52:27.775Z,40.32
2023-03-04T03:53:27.844Z,38.79
2023-03-04T03:54:27.940Z,42.60
2023-03-04T03:55:28.016Z,39.83
2023-03-04T03:56:28.101Z,41.41
2023-03-04T03:57:28.215Z,41.47
2023-03-04T03:58:28.282Z,42.02
2023-03-04T03:59:28.354Z,41.41
2023-03-04T04:00:28.462Z,41.34
2023-03-04T04:01:28.538Z,38.25
2023-03-04T04:02:28.729Z,40.22
2023-03-04T04:03:28.712Z,39.81
2023-03-04T04:04:28.818Z,39.43
2023-03-04T04:05:28.892Z,41.82
2023-03-04T04:06:28.965Z,42.57
2023-03-04T04:07:29.051Z,39.55
2023-03-04T04:08:29.154Z,39.23
2023-03-04T04:09:29.341Z,41.16
2023-03-04T04:10:29.322Z,40.14
2023-03-04T04:11:29.414Z,38.12
2023-03-04T04:12:29.497Z,40.52
2023-03-04T04:13:29.574Z,39.68
2023-03-04T04:14:29.727Z,39.45
2023-03-04T04:15:29.732Z,38.70
2023-03-04T04:16:29.960Z,38.67
2023-03-04T04:17:30.355Z,40.26
2023-03-04T04:18:30.004Z,38.35
2023-03-04T04:19:30.122Z,38.29
2023-03-04T04:20:30.192Z,37.18
2023-03-04T04:21:30.359Z,40.02
2023-03-04T04:22:30.380Z,40.13
2023-03-04T04:23:30.463Z,37.71
2023-03-04T04:24:30.522Z,37.89
2023-03-04T04:26:30.676Z,37.43
2023-03-04T04:27:30.753Z,37.38
2023-03-04T05:47:37.725Z,30.07
2023-03-04T05:48:37.830Z,31.44
2023-03-04T05:49:37.899Z,30.13
2023-03-04T05:50:38.005Z,31.99
2023-03-04T05:51:38.084Z,31.21
2023-03-04T05:52:38.164Z,30.88
2023-03-04T05:53:38.244Z,32.46
2023-03-04T05:54:38.331Z,30.83
2023-03-04T05:55:38.410Z,30.46
2023-03-04T05:56:38.487Z,30.32
2023-03-04T05:57:38.576Z,32.48
2023-03-04T05:58:38.677Z,32.12
2023-03-04T05:59:38.749Z,30.53
2023-03-04T06:00:38.842Z,30.09
2023-03-04T06:01:38.926Z,31.89
2023-03-04T06:02:39.040Z,33.25
2023-03-04T06:03:39.143Z,31.05
2023-03-04T06:04:39.199Z,30.20
2023-03-04T06:05:39.279Z,32.06
2023-03-04T06:27:40.737Z,31.25
2023-03-04T06:28:40.780Z,31.06
2023-03-04T06:29:40.863Z,31.83
2023-03-04T06:30:40.811Z,29.46
2023-03-04T06:31:40.865Z,29.76
2023-03-04T06:32:40.878Z,31.44
2023-03-04T06:33:40.918Z,28.44
2023-03-04T06:34:40.954Z,26.76
2023-03-04T06:35:41.017Z,28.97
2023-03-04T06:36:41.019Z,30.17
2023-03-04T06:37:41.054Z,27.34
2023-03-04T06:38:41.098Z,29.53
2023-03-04T06:39:41.122Z,26.98
2023-03-04T06:40:41.162Z,29.49
2023-03-04T06:41:41.192Z,30.70
2023-03-04T06:42:41.214Z,28.75
2023-03-04T06:43:41.253Z,27.29
2023-03-04T06:44:41.283Z,30.32
2023-03-04T06:45:41.304Z,29.71
2023-03-04T06:46:41.935Z,29.62
2023-03-04T06:47:41.389Z,29.30
2023-03-04T06:48:41.421Z,29.59
2023-03-04T06:49:41.451Z,28.25
2023-03-04T06:50:41.502Z,27.79
2023-03-04T06:51:41.526Z,29.23
2023-03-04T06:52:41.637Z,29.03
2023-03-04T06:53:41.682Z,27.22
2023-03-04T06:54:41.771Z,27.36
2023-03-04T06:55:41.846Z,30.19
2023-03-04T07:26:44.403Z,26.84
2023-03-04T07:28:44.604Z,29.18
2023-03-04T07:29:44.694Z,27.05
2023-03-04T07:30:44.802Z,26.59
2023-03-04T07:31:44.968Z,26.83
2023-03-04T07:32:45.095Z,26.19
2023-03-04T07:33:45.109Z,28.05
2023-03-04T07:34:45.183Z,27.73
2023-03-04T07:35:45.325Z,25.85
2023-03-04T07:36:45.365Z,27.84
2023-03-04T07:37:45.461Z,25.98
2023-03-04T07:38:45.604Z,27.45
2023-03-04T07:39:45.650Z,27.66
2023-03-04T07:40:45.756Z,28.01
2023-03-04T07:41:45.856Z,29.08
2023-03-04T07:42:46.940Z,28.48
2023-03-04T07:43:46.056Z,29.21
2023-03-04T07:44:46.146Z,26.54
2023-03-04T07:45:46.297Z,28.85
2023-03-04T07:46:46.344Z,28.03
2023-03-04T07:47:46.444Z,28.46
2023-03-04T07:48:46.537Z,27.56
2023-03-04T07:49:46.633Z,28.67
2023-03-04T07:50:46.727Z,30.68
2023-03-04T07:51:46.807Z,30.12
2023-03-04T07:52:46.889Z,31.93
2023-03-04T07:53:46.973Z,29.97
2023-03-04T07:54:47.064Z,29.78
2023-03-04T07:55:47.133Z,31.39
2023-03-04T07:56:47.200Z,28.00
2023-03-04T07:57:47.270Z,32.15
2023-03-04T07:58:47.341Z,29.34
2023-03-04T07:59:47.388Z,30.12
2023-03-04T08:00:47.436Z,28.61
2023-03-04T08:01:47.483Z,30.33
2023-03-04T08:02:47.596Z,29.48
2023-03-04T08:03:47.606Z,28.99
2023-03-04T08:04:47.623Z,30.29
2023-03-04T08:05:47.641Z,30.39
2023-03-04T08:06:47.665Z,33.40
2023-03-04T08:07:47.720Z,26.76
2023-03-04T08:08:47.753Z,32.71
2023-03-04T08:09:47.792Z,31.87
2023-03-04T08:10:47.840Z,34.43
2023-03-04T08:11:47.887Z,27.77
2023-03-04T08:12:47.929Z,30.41
2023-03-04T08:13:48.010Z,31.45
2023-03-04T08:14:48.041Z,32.26
2023-03-04T08:15:48.145Z,29.60
2023-03-04T08:16:48.159Z,28.87
2023-03-04T08:17:48.206Z,31.81
2023-03-04T08:18:48.440Z,33.87
2023-03-04T08:19:48.381Z,33.45
2023-03-04T08:20:48.454Z,33.53
2023-03-04T08:21:48.538Z,34.98
2023-03-04T08:22:48.629Z,31.96
2023-03-04T08:23:48.738Z,35.94
2023-03-04T08:24:48.826Z,35.82
2023-03-04T08:25:48.917Z,33.48
2023-03-04T08:26:49.012Z,33.74
2023-03-04T08:27:49.087Z,35.73
2023-03-04T08:28:49.222Z,35.24
2023-03-04T08:29:49.247Z,36.01
2023-03-04T08:30:49.341Z,35.28
2023-03-04T08:31:49.624Z,32.50
2023-03-04T08:32:49.529Z,34.03
2023-03-04T08:33:49.547Z,34.29
2023-03-04T08:34:49.622Z,35.75
2023-03-04T08:35:49.739Z,34.98
2023-03-04T08:36:49.758Z,35.07
2023-03-04T08:37:49.826Z,31.90
2023-03-04T08:38:49.904Z,33.39
2023-03-04T08:39:49.978Z,34.22
2023-03-04T08:42:50.201Z,33.82
2023-03-04T08:43:50.288Z,30.73
2023-03-04T08:44:50.356Z,31.85
2023-03-04T08:45:50.506Z,32.17
2023-03-04T08:46:50.516Z,31.84
2023-03-04T08:47:50.589Z,31.58
2023-03-04T11:11:57.717Z,35.45
2023-03-04T11:12:57.780Z,34.85
2023-03-04T11:13:57.839Z,33.07
2023-03-04T11:14:57.916Z,34.35
2023-03-04T11:15:58.588Z,33.93
2023-03-04T11:16:58.162Z,32.87
2023-03-04T11:17:58.075Z,33.56
2023-03-04T11:18:58.137Z,35.86
2023-03-04T11:19:58.181Z,33.90
2023-03-04T11:20:58.248Z,33.93
2023-03-04T11:21:58.390Z,31.20
2023-03-04T11:22:58.382Z,33.61
2023-03-04T11:23:58.455Z,33.56
2023-03-04T11:24:58.506Z,31.93
2023-03-04T11:25:58.572Z,33.36
2023-03-04T11:26:58.639Z,34.25
2023-03-04T11:27:58.767Z,35.18
2023-03-04T11:28:58.756Z,35.43
2023-03-04T11:29:58.810Z,32.00
2023-03-04T11:30:58.874Z,36.57
2023-03-04T11:31:59.093Z,36.98
2023-03-04T11:32:59.009Z,36.16
2023-03-04T11:33:59.069Z,35.72
2023-03-04T11:34:59.121Z,34.63
2023-03-04T11:35:59.250Z,34.16
2023-03-04T11:36:59.498Z,35.02
2023-03-04T11:37:59.346Z,31.79
2023-03-04T11:38:59.411Z,33.31
2023-03-04T11:40:00.016Z,38.97
2023-03-04T11:40:59.545Z,39.37
2023-03-04T11:41:59.623Z,36.64
2023-03-04T11:42:59.678Z,38.69
2023-03-04T11:43:59.754Z,34.25
2023-03-04T11:44:59.825Z,38.96
2023-03-04T11:45:59.983Z,39.14
2023-03-04T11:46:59.969Z,40.55
2023-03-04T11:48:00.046Z,39.63
2023-03-04T11:49:00.147Z,36.93
2023-03-04T11:50:00.239Z,38.55
2023-03-04T11:51:00.265Z,39.77
2023-03-04T11:52:00.349Z,39.20
2023-03-04T11:53:00.424Z,36.52
2023-03-04T11:54:00.503Z,38.55
2023-03-04T11:55:00.616Z,37.98
2023-03-04T11:56:00.649Z,37.64
2023-03-04T11:57:00.720Z,39.98
2023-03-04T11:58:00.800Z,34.48
2023-03-04T11:59:00.872Z,37.18
2023-03-04T12:00:01.121Z,37.35
2023-03-04T12:01:01.022Z,37.40
2023-03-04T12:02:01.105Z,38.33
2023-03-04T12:03:01.172Z,40.02
2023-03-04T12:04:01.367Z,37.69
2023-03-04T12:05:01.373Z,36.58
2023-03-04T12:06:01.420Z,38.93
2023-03-04T12:07:01.507Z,33.83
2023-03-04T12:08:01.591Z,35.40
2023-03-04T12:09:01.674Z,36.91
2023-03-04T12:10:01.780Z,36.59
2023-03-04T12:11:01.834Z,37.01
2023-03-04T12:12:01.914Z,33.93
2023-03-04T12:13:01.998Z,34.70
2023-03-04T12:14:02.083Z,36.51
2023-03-04T12:15:02.155Z,38.26
2023-03-04T12:16:02.282Z,36.61
2023-03-04T12:17:02.339Z,33.43
2023-03-04T12:18:02.541Z,35.87
2023-03-04T12:19:02.516Z,33.86
2023-03-04T12:20:02.590Z,36.59
2023-03-04T12:21:02.679Z,33.54
2023-03-04T12:22:02.828Z,33.22
2023-03-04T12:23:02.843Z,34.33
2023-03-04T12:24:02.946Z,34.95
2023-03-04T12:25:03.021Z,32.91
2023-03-04T12:26:03.108Z,33.18
2023-03-04T12:27:03.234Z,33.44
2023-03-04T12:28:03.299Z,32.22
2023-03-04T12:29:03.367Z,34.40
2023-03-04T12:30:03.473Z,36.02
2023-03-04T12:31:03.561Z,36.11
2023-03-04T12:32:03.693Z,38.97
2023-03-04T12:33:03.800Z,35.38
2023-03-04T12:34:03.812Z,32.37
2023-03-04T12:35:03.980Z,35.84
2023-03-04T12:36:03.997Z,36.17
2023-03-04T12:37:04.100Z,35.80
2023-03-04T12:38:04.183Z,35.13
2023-03-04T12:39:04.290Z,30.96
2023-03-04T12:40:04.389Z,33.86
2023-03-04T12:41:04.476Z,32.97
2023-03-04T12:42:04.591Z,32.32
2023-03-04T12:43:04.703Z,34.90
2023-03-04T12:44:04.797Z,32.14
2023-03-04T12:45:04.887Z,31.16
2023-03-04T12:46:05.028Z,34.47
2023-03-04T12:47:05.088Z,30.29
2023-03-04T12:48:05.198Z,34.95
2023-03-04T12:49:05.311Z,32.91
2023-03-04T12:50:05.411Z,32.53
2023-03-04T12:51:05.510Z,37.04
2023-03-04T12:52:05.608Z,35.24
2023-03-04T12:53:05.713Z,34.94
2023-03-04T12:54:05.813Z,31.06
2023-03-04T12:55:05.929Z,33.91
2023-03-04T12:56:07.480Z,30.23
2023-03-04T12:57:06.053Z,35.21
2023-03-04T12:58:06.099Z,37.42
2023-03-04T12:59:06.154Z,32.69
2023-03-04T13:00:06.176Z,32.08
2023-03-04T13:01:06.249Z,32.32
2023-03-04T13:02:07.209Z,33.27
2023-03-04T13:03:06.375Z,30.79
2023-03-04T13:04:06.386Z,32.51
2023-03-04T13:05:06.360Z,34.36
2023-03-04T13:06:06.404Z,33.21
2023-03-04T13:07:06.437Z,32.89
2023-03-04T13:08:06.478Z,32.07
2023-03-04T13:09:06.511Z,35.34
2023-03-04T13:10:06.553Z,31.11
2023-03-04T13:11:06.585Z,35.60
2023-03-04T13:12:06.628Z,34.81
2023-03-04T13:13:06.681Z,30.68
2023-03-04T13:14:07.097Z,32.17
2023-03-04T13:15:06.751Z,31.18
2023-03-04T13:16:06.835Z,32.41
2023-03-04T13:17:06.820Z,30.67
2023-03-04T13:18:06.858Z,30.22
2023-03-04T13:19:06.904Z,33.77
2023-03-04T13:20:06.959Z,33.44
2023-03-04T13:21:06.961Z,29.87
2023-03-04T13:22:07.006Z,33.29
2023-03-04T13:23:07.044Z,29.27
2023-03-04T13:40:08.062Z,34.38
2023-03-04T13:47:07.794Z,35.84
2023-03-04T13:48:07.746Z,33.11
2023-03-04T13:49:07.781Z,32.36
2023-03-04T13:50:07.818Z,34.44
2023-03-04T13:51:09.764Z,35.47
2023-03-04T13:52:08.951Z,35.60
2023-03-04T13:53:07.894Z,35.51
2023-03-04T13:54:07.963Z,36.04
2023-03-04T13:55:07.976Z,35.08
2023-03-04T13:56:07.974Z,34.79
2023-03-04T13:57:07.993Z,35.21
2023-03-04T13:58:08.040Z,33.79
2023-03-04T13:59:08.103Z,32.01
2023-03-04T14:00:08.108Z,32.33
2023-03-04T14:01:08.208Z,33.96
2023-03-04T14:02:08.135Z,35.10
2023-03-04T14:03:08.164Z,35.24
2023-03-04T14:04:08.223Z,33.62
2023-03-04T14:05:08.209Z,34.41
2023-03-04T14:06:08.227Z,32.50
2023-03-04T14:08:08.307Z,35.36
2023-03-04T14:09:08.309Z,33.98
2023-03-04T14:10:08.345Z,33.97
2023-03-04T14:11:08.367Z,35.61
2023-03-04T14:12:08.391Z,33.75
2023-03-04T14:31:09.057Z,36.46
2023-03-04T14:32:09.116Z,36.79
2023-03-04T14:33:09.146Z,36.62
2023-03-04T14:34:09.202Z,37.26
2023-03-04T14:35:09.235Z,36.75
2023-03-04T14:36:09.288Z,35.43
2023-03-04T14:37:09.338Z,37.34
2023-03-04T14:38:09.377Z,37.89
2023-03-04T14:39:09.426Z,37.25
2023-03-04T14:40:09.474Z,34.56
2023-03-04T14:41:09.517Z,36.56
2023-03-04T14:42:09.569Z,33.40
2023-03-04T14:43:09.602Z,33.32
2023-03-04T14:44:09.641Z,34.20
2023-03-04T14:45:09.696Z,33.50
2023-03-04T14:46:09.785Z,39.48
2023-03-04T14:47:09.793Z,33.12
2023-03-04T14:48:09.839Z,37.57
2023-03-04T14:49:10.871Z,37.80
2023-03-04T14:50:10.008Z,36.08
2023-03-04T14:51:09.992Z,38.08
2023-03-04T14:52:09.958Z,38.88
2023-03-04T14:53:09.984Z,36.39
2023-03-04T14:54:10.013Z,34.66
2023-03-04T14:55:10.050Z,34.03
2023-03-04T14:56:10.085Z,34.45
2023-03-04T14:57:10.104Z,32.26
2023-03-04T14:58:11.095Z,32.93
2023-03-04T14:59:10.167Z,36.25
2023-03-04T15:00:10.197Z,34.40
2023-03-04T15:01:10.239Z,34.64
2023-03-04T15:02:10.250Z,36.54
2023-03-04T15:03:10.282Z,35.11
2023-03-04T15:04:10.363Z,33.18
2023-03-04T15:05:16.997Z,33.73
2023-03-04T15:06:11.362Z,34.05
2023-03-04T15:07:10.394Z,34.36
2023-03-04T15:08:10.424Z,35.65
2023-03-04T15:09:10.445Z,34.59
2023-03-04T15:10:10.471Z,34.21
2023-03-04T15:11:10.503Z,38.32
2023-03-04T15:12:10.526Z,37.29
2023-03-04T15:13:10.567Z,34.56
2023-03-04T15:33:11.254Z,33.00
2023-03-04T15:34:11.234Z,35.33
2023-03-04T15:35:11.275Z,34.50
2023-03-04T15:36:11.342Z,33.49
2023-03-04T15:37:11.385Z,35.31
2023-03-04T15:38:11.440Z,35.02
2023-03-04T15:39:11.506Z,32.80
2023-03-04T15:40:11.558Z,34.71
2023-03-04T15:41:12.606Z,35.36
2023-03-04T15:42:11.677Z,34.69
2023-03-04T15:43:11.728Z,32.00
2023-03-04T15:44:11.792Z,33.02
2023-03-04T15:45:12.603Z,31.93
2023-03-04T15:46:12.005Z,34.57
2023-03-04T15:47:11.966Z,32.74
2023-03-04T15:48:12.033Z,34.58
2023-03-04T15:49:12.074Z,31.27
2023-03-04T15:50:12.124Z,32.51
2023-03-04T15:51:12.181Z,34.15
2023-03-04T15:52:12.227Z,31.74
2023-03-04T15:53:12.347Z,33.45
2023-03-04T15:54:12.335Z,33.94
2023-03-04T15:55:12.381Z,33.09
2023-03-04T15:56:12.440Z,32.43
2023-03-04T15:57:12.512Z,32.68
2023-03-04T15:58:12.554Z,32.65
2023-03-04T15:59:12.589Z,33.41
2023-03-04T16:00:13.610Z,34.18
2023-03-04T16:01:12.715Z,34.35
2023-03-04T16:02:12.745Z,33.63
2023-03-04T16:03:13.622Z,32.55
2023-03-04T16:04:12.922Z,31.65
2023-03-04T16:05:15.615Z,30.47
2023-03-04T16:06:12.936Z,34.59
2023-03-04T16:07:13.124Z,35.68
2023-03-04T16:08:13.000Z,32.31
2023-03-04T16:09:13.123Z,28.68
2023-03-04T16:10:13.113Z,32.73
2023-03-04T16:11:13.093Z,31.11
2023-03-04T16:12:13.119Z,33.67
2023-03-04T16:13:13.137Z,32.95
2023-03-04T16:14:13.189Z,31.91
2023-03-04T16:15:13.195Z,33.96
2023-03-04T16:16:13.268Z,32.09
2023-03-04T16:17:13.266Z,33.55
2023-03-04T16:18:13.291Z,33.10
2023-03-04T16:19:13.321Z,33.62
2023-03-04T16:20:13.347Z,34.44
2023-03-04T16:21:13.391Z,35.07
2023-03-04T16:22:13.429Z,32.45
2023-03-04T16:23:13.456Z,34.11
2023-03-04T16:24:13.501Z,28.20
2023-03-04T16:25:13.532Z,32.60
2023-03-04T16:26:13.556Z,30.45
2023-03-04T16:27:13.580Z,33.10
2023-03-04T16:28:13.615Z,34.22
2023-03-04T17:52:17.776Z,27.06
2023-03-04T17:53:17.870Z,25.69
2023-03-04T17:54:17.951Z,25.77
2023-03-04T17:55:18.017Z,28.04
2023-03-04T17:56:18.094Z,28.09
2023-03-04T17:57:18.183Z,26.42
2023-03-04T17:58:21.161Z,26.88
2023-03-04T17:59:18.288Z,29.25
2023-03-04T18:00:18.316Z,27.31
2023-03-04T18:01:18.369Z,26.37
2023-03-04T18:02:18.420Z,26.48
2023-03-04T18:03:18.408Z,26.81
2023-03-04T18:04:18.441Z,25.11
2023-03-04T18:05:18.472Z,25.00
2023-03-04T18:06:18.489Z,26.16
2023-03-04T18:07:18.532Z,28.58
2023-03-04T18:08:18.549Z,26.11
2023-03-04T18:09:18.588Z,26.47
2023-03-04T18:10:18.614Z,27.74
2023-03-04T18:11:18.646Z,25.15
2023-03-04T18:12:18.684Z,26.69
2023-03-04T18:13:18.710Z,26.79
2023-03-04T18:14:18.742Z,25.19
2023-03-04T18:15:18.794Z,26.73
2023-03-04T18:16:18.891Z,25.67
2023-03-04T18:17:18.926Z,26.82
2023-03-04T18:18:18.878Z,26.55
2023-03-04T18:19:18.919Z,25.00
2023-03-04T18:20:19.713Z,26.72
2023-03-04T18:21:18.998Z,26.89
2023-03-04T18:22:18.996Z,27.73
2023-03-04T18:23:19.026Z,27.21
2023-03-04T18:24:19.062Z,27.45
2023-03-04T18:25:19.079Z,27.73
2023-03-04T18:26:21.127Z,26.65
2023-03-04T18:27:19.132Z,28.31
2023-03-04T18:28:19.162Z,25.42
2023-03-04T18:29:19.196Z,26.15
2023-03-04T18:30:19.230Z,27.27
2023-03-04T18:31:19.319Z,27.53
2023-03-04T19:58:27.800Z,29.05
2023-03-04T19:59:27.916Z,27.19
2023-03-04T20:00:28.033Z,28.11
2023-03-04T20:01:28.488Z,27.23
2023-03-04T20:02:28.183Z,27.37
2023-03-04T20:03:28.286Z,28.99
2023-03-04T20:04:28.462Z,27.09
2023-03-04T20:10:28.969Z,25.63
2023-03-04T20:11:29.085Z,26.50
2023-03-04T20:12:29.179Z,28.43
2023-03-04T20:13:29.282Z,28.15
2023-03-04T20:14:29.400Z,29.05
2023-03-04T20:15:29.536Z,27.89
2023-03-04T20:16:29.611Z,29.45
2023-03-04T20:17:29.697Z,28.72
2023-03-04T20:18:30.229Z,28.60
2023-03-04T20:19:29.905Z,26.99
2023-03-04T20:20:29.999Z,29.43
2023-03-04T20:21:30.103Z,30.38
2023-03-04T20:22:30.191Z,29.18
2023-03-04T20:23:30.296Z,27.82
2023-03-04T20:24:30.397Z,29.00
2023-03-04T20:25:30.497Z,30.41
2023-03-04T20:26:30.604Z,29.50
2023-03-04T20:27:30.701Z,28.18
2023-03-04T20:28:30.848Z,31.58
2023-03-04T20:29:30.893Z,27.52
2023-03-04T20:30:31.070Z,27.98
2023-03-04T20:31:31.092Z,28.70
2023-03-04T20:32:31.212Z,27.53
2023-03-04T20:33:31.276Z,29.79
2023-03-04T20:34:31.381Z,28.33
2023-03-04T20:35:31.532Z,29.35
2023-03-04T20:36:31.595Z,28.45
2023-03-04T20:37:31.686Z,27.61
2023-03-04T20:38:31.771Z,28.65
2023-03-04T20:39:31.864Z,26.56
2023-03-04T20:40:31.957Z,26.99
2023-03-04T20:41:32.049Z,29.46
2023-03-04T20:42:32.111Z,26.35
2023-03-04T20:43:32.211Z,29.06
2023-03-04T20:44:32.291Z,25.12
2023-03-04T20:45:32.382Z,26.12
2023-03-04T20:46:32.519Z,25.00
2023-03-04T20:47:32.570Z,27.59
2023-03-04T20:48:32.641Z,27.26
2023-03-04T20:49:32.732Z,26.93
2023-03-04T20:50:32.793Z,29.09
2023-03-04T20:51:32.878Z,28.54
2023-03-04T20:52:32.964Z,28.89
2023-03-04T20:53:33.058Z,27.56
2023-03-04T20:54:33.156Z,26.13
2023-03-04T20:55:33.270Z,27.68
2023-03-04T20:56:33.370Z,29.00
2023-03-04T20:57:33.512Z,27.98
2023-03-04T20:58:33.507Z,29.59
2023-03-04T20:59:33.586Z,27.81
2023-03-04T21:00:33.666Z,26.58
2023-03-04T21:01:33.810Z,26.41
2023-03-04T21:02:33.853Z,28.19
2023-03-04T21:03:33.931Z,27.75
2023-03-04T21:04:34.078Z,30.01
2023-03-04T21:05:34.120Z,28.02
2023-03-04T21:06:34.234Z,27.48
2023-03-04T21:07:34.329Z,28.60
2023-03-04T21:08:35.230Z,27.19
2023-03-04T21:09:34.494Z,27.38
2023-03-04T21:10:34.580Z,29.47
2023-03-04T21:11:34.696Z,28.08
2023-03-04T21:12:34.797Z,27.71
2023-03-04T21:13:34.902Z,26.84
2023-03-04T21:14:35.027Z,28.46
2023-03-04T21:15:35.118Z,26.28
2023-03-04T21:16:35.218Z,26.69
2023-03-04T21:17:35.323Z,28.62
2023-03-04T21:18:35.424Z,28.73
2023-03-04T21:19:35.596Z,26.60
2023-03-04T21:20:35.633Z,26.34
2023-03-04T21:41:37.766Z,28.03
2023-03-04T21:42:37.861Z,27.92
2023-03-04T21:43:37.952Z,28.93
2023-03-04T21:44:49.095Z,31.01
2023-03-04T21:45:39.085Z,31.09
2023-03-04T21:46:38.130Z,31.19
2023-03-04T21:47:38.149Z,28.61
2023-03-04T21:48:38.178Z,31.22
2023-03-04T21:49:39.112Z,26.41
2023-03-04T21:50:38.250Z,28.28
2023-03-04T21:51:38.279Z,26.88
2023-03-04T21:52:38.326Z,28.65
2023-03-04T21:53:39.269Z,26.18
2023-03-04T21:54:38.414Z,28.36
2023-03-04T21:55:38.528Z,27.01
2023-03-04T21:56:38.620Z,27.96
2023-03-04T21:57:38.727Z,28.41
2023-03-04T21:58:39.309Z,27.85
2023-03-04T21:59:39.046Z,27.67
2023-03-04T22:00:39.077Z,28.34
2023-03-04T22:01:39.153Z,26.35
2023-03-04T22:02:39.218Z,29.34
2023-03-04T22:03:39.316Z,28.63
2023-03-04T22:04:39.426Z,29.02
2023-03-04T22:05:39.579Z,27.51
2023-03-04T22:06:41.158Z,28.88
2023-03-04T22:07:39.729Z,27.60
2023-03-04T22:08:39.836Z,28.88
2023-03-04T22:09:39.943Z,26.86
2023-03-04T22:10:40.132Z,28.62
2023-03-04T22:11:40.172Z,28.02
2023-03-04T22:12:40.264Z,27.06
2023-03-04T22:13:40.381Z,28.58
2023-03-04T22:14:40.511Z,29.01
2023-03-04T22:15:40.575Z,28.24
2023-03-04T22:16:54.074Z,28.73
2023-03-04T22:17:41.703Z,28.84
2023-03-04T22:18:40.879Z,28.94
2023-03-04T22:19:40.771Z,28.80
2023-03-04T22:20:41.720Z,28.74
2023-03-04T22:21:40.836Z,27.47
2023-03-04T22:22:40.867Z,29.05
2023-03-04T22:23:40.912Z,27.59
2023-03-04T22:24:40.956Z,27.56
2023-03-04T22:25:40.982Z,26.56
2023-03-04T22:26:41.069Z,28.87
2023-03-04T22:27:41.173Z,28.19
2023-03-04T22:28:41.390Z,29.13
2023-03-04T22:29:41.397Z,28.30
2023-03-04T22:30:41.455Z,27.38
2023-03-04T22:31:41.658Z,26.84
2023-03-04T22:32:41.702Z,27.24
2023-03-04T22:33:41.808Z,28.25
2023-03-04T22:34:41.863Z,28.40
2023-03-04T22:35:41.956Z,25.50
2023-03-04T22:36:42.084Z,27.72
2023-03-04T22:37:42.142Z,26.83
2023-03-04T22:38:42.249Z,27.13
2023-03-04T22:39:42.346Z,26.84
2023-03-04T22:40:42.460Z,26.93
2023-03-04T22:41:42.550Z,25.19
2023-03-04T22:42:42.724Z,26.77
2023-03-04T22:43:42.768Z,27.97
2023-03-04T22:44:42.857Z,27.36
2023-03-04T22:45:42.991Z,29.03
2023-03-04T22:46:43.044Z,27.53
2023-03-04T22:47:43.138Z,27.12
2023-03-04T22:48:43.239Z,27.21
2023-03-04T22:49:43.332Z,26.88
2023-03-04T22:50:43.429Z,28.59
2023-03-04T22:51:43.537Z,28.05
2023-03-04T22:52:43.620Z,29.54
2023-03-04T22:53:43.758Z,27.72
2023-03-04T22:54:43.813Z,26.39
2023-03-04T22:55:44.828Z,26.12
2023-03-04T22:56:43.997Z,26.97
2023-03-04T22:57:44.089Z,28.27
2023-03-04T22:58:44.165Z,26.57
2023-03-04T22:59:44.262Z,27.44
2023-03-04T23:00:44.428Z,26.59
2023-03-04T23:01:44.466Z,27.22
2023-03-04T23:02:44.592Z,27.17
2023-03-04T23:03:44.678Z,29.19
2023-03-04T23:04:44.812Z,28.04
2023-03-04T23:05:44.897Z,27.06
2023-03-04T23:06:44.986Z,26.76
2023-03-04T23:07:45.079Z,27.72
2023-03-04T23:08:45.173Z,27.07
2023-03-04T23:09:45.320Z,27.59
2023-03-04T23:10:45.374Z,29.99
2023-03-04T23:11:45.453Z,27.03
2023-03-04T23:12:45.555Z,28.68
2023-03-04T23:13:45.665Z,29.24
2023-03-04T23:14:45.931Z,28.15
2023-03-04T23:15:45.912Z,27.61
2023-03-04T23:16:45.980Z,28.77
2023-03-04T23:17:46.068Z,27.06
2023-03-04T23:18:46.148Z,26.96
2023-03-04T23:19:46.262Z,27.46
2023-03-04T23:20:46.350Z,26.85
2023-03-04T23:21:46.437Z,27.32
2023-03-04T23:22:46.511Z,29.20
2023-03-04T23:23:46.577Z,28.15
2023-03-04T23:24:46.662Z,27.03
2023-03-04T23:25:46.774Z,29.00
2023-03-04T23:26:46.886Z,28.14
2023-03-04T23:27:46.943Z,30.58
2023-03-04T23:28:47.039Z,25.83
2023-03-04T23:29:47.137Z,25.83
2023-03-04T23:30:47.234Z,32.55
2023-03-04T23:31:47.455Z,28.56
2023-03-04T23:32:47.429Z,26.94
2023-03-04T23:33:47.647Z,26.18
2023-03-04T23:34:47.606Z,27.74
2023-03-04T23:35:47.753Z,28.76
2023-03-04T23:36:47.841Z,29.03
2023-03-04T23:37:47.914Z,30.63
2023-03-04T23:38:48.037Z,28.39
2023-03-04T23:39:48.111Z,29.11
2023-03-04T23:40:48.218Z,27.95
2023-03-04T23:41:48.318Z,28.47
2023-03-04T23:42:49.319Z,27.95
2023-03-04T23:43:48.533Z,26.59
2023-03-04T23:44:48.615Z,27.11
2023-03-04T23:45:48.756Z,27.95
2023-03-04T23:46:48.812Z,27.99